Time;durP1;ratioP1;P1;durP2;ratioP2;P2;SDS_P1;SDS_P2;PMS_P1;PMS_P2;Temp;Humidity;BMP_temperature;BMP_pressure;BME280_temperature;BME280_humidity;BME280_pressure;Samples;Min_cycle;Max_cycle;Signal;HPM_P1;HPM_P2
2021/01/19 00:00:43;;;;;;;78.60;23.17;;;;;;;;;;5064638;28;20073;-82
2021/01/19 00:03:10;;;;;;;75.78;24.10;;;;;;;;;;5056361;28;20601;-81
2021/01/19 00:05:37;;;;;;;79.75;24.48;;;;;;;;;;5067130;28;20072;-81
2021/01/19 00:08:13;;;;;;;76.13;24.17;;;;;;;;;;5057622;28;20777;-81
2021/01/19 00:10:40;;;;;;;79.63;24.42;;;;;;;;;;5055448;28;20401;-81
2021/01/19 00:13:06;;;;;;;77.15;25.63;;;;;;;;;;5056010;28;20815;-81
2021/01/19 00:15:33;;;;;;;72.65;24.58;;;;;;;;;;5056838;28;20076;-81
2021/01/19 00:18:00;;;;;;;69.28;24.80;;;;;;;;;;5073875;28;20539;-80
2021/01/19 00:20:26;;;;;;;82.60;25.35;;;;;;;;;;5074563;28;20049;-80
2021/01/19 00:22:53;;;;;;;62.10;23.60;;;;;;;;;;5063934;28;20150;-80
2021/01/19 00:25:23;;;;;;;83.95;26.23;;;;;;;;;;5059096;28;20041;-80
2021/01/19 00:27:50;;;;;;;74.28;24.83;;;;;;;;;;5064167;28;20102;-80
2021/01/19 00:30:17;;;;;;;71.53;22.92;;;;;;;;;;5062963;28;20720;-79
2021/01/19 00:32:47;;;;;;;68.07;22.70;;;;;;;;;;5063274;28;20135;-80
2021/01/19 00:35:13;;;;;;;63.45;22.85;;;;;;;;;;5059129;28;20391;-80
2021/01/19 00:37:40;;;;;;;68.72;23.65;;;;;;;;;;5071867;28;20111;-80
2021/01/19 00:40:07;;;;;;;69.80;21.55;;;;;;;;;;5064268;28;20067;-80
2021/01/19 00:42:34;;;;;;;68.90;22.55;;;;;;;;;;5064677;28;20047;-81
2021/01/19 00:45:02;;;;;;;74.03;21.90;;;;;;;;;;5062044;28;20055;-81
2021/01/19 00:47:28;;;;;;;76.60;21.98;;;;;;;;;;5067440;28;20079;-81
2021/01/19 00:49:55;;;;;;;70.65;21.10;;;;;;;;;;5073163;28;20072;-81
2021/01/19 00:52:25;;;;;;;66.00;21.50;;;;;;;;;;5066714;28;20080;-81
2021/01/19 00:54:56;;;;;;;67.38;20.88;;;;;;;;;;5062361;28;20759;-81
2021/01/19 00:57:23;;;;;;;60.60;20.63;;;;;;;;;;5064970;28;20102;-81
2021/01/19 00:59:49;;;;;;;63.50;20.88;;;;;;;;;;5080371;28;20080;-81
2021/01/19 01:02:17;;;;;;;60.08;20.88;;;;;;;;;;5059706;28;20053;-81
2021/01/19 01:04:44;;;;;;;66.97;21.02;;;;;;;;;;5055075;28;20040;-81
2021/01/19 01:07:11;;;;;;;59.83;20.30;;;;;;;;;;5060698;28;20753;-81
2021/01/19 01:09:37;;;;;;;63.13;19.45;;;;;;;;;;5065718;28;20082;-81
2021/01/19 01:12:05;;;;;;;58.22;21.08;;;;;;;;;;5059639;28;20105;-81
2021/01/19 01:14:32;;;;;;;69.53;21.13;;;;;;;;;;5067352;28;20060;-81
2021/01/19 01:16:59;;;;;;;64.75;21.70;;;;;;;;;;5060962;28;20608;-81
2021/01/19 01:19:25;;;;;;;63.00;21.63;;;;;;;;;;5063336;28;20123;-81
2021/01/19 01:21:52;;;;;;;60.33;19.58;;;;;;;;;;5057974;28;20080;-81
2021/01/19 01:24:19;;;;;;;54.70;20.65;;;;;;;;;;5079778;28;20048;-81
2021/01/19 01:26:45;;;;;;;58.40;20.83;;;;;;;;;;5063436;28;20120;-81
2021/01/19 01:29:12;;;;;;;61.10;20.35;;;;;;;;;;5064392;28;20132;-81
2021/01/19 01:31:40;;;;;;;62.42;20.23;;;;;;;;;;5078585;28;20585;-81
2021/01/19 01:34:07;;;;;;;61.67;20.90;;;;;;;;;;5056211;28;20075;-81
2021/01/19 01:36:40;;;;;;;56.97;19.80;;;;;;;;;;5063295;28;20126;-81
2021/01/19 01:39:07;;;;;;;64.10;20.38;;;;;;;;;;5059456;28;20094;-81
2021/01/19 01:41:33;;;;;;;57.13;19.85;;;;;;;;;;5058280;28;20098;-81
2021/01/19 01:44:03;;;;;;;59.70;19.88;;;;;;;;;;5068282;28;20449;-81
2021/01/19 01:46:31;;;;;;;58.90;19.17;;;;;;;;;;5061394;28;20135;-82
2021/01/19 01:48:58;;;;;;;72.15;20.92;;;;;;;;;;5064190;28;20177;-81
2021/01/19 01:51:26;;;;;;;58.90;20.83;;;;;;;;;;5062586;28;20045;-81
2021/01/19 01:53:57;;;;;;;66.38;21.27;;;;;;;;;;5066282;28;20059;-81
2021/01/19 01:56:24;;;;;;;63.40;20.48;;;;;;;;;;5074838;28;20124;-81
2021/01/19 01:58:52;;;;;;;61.05;19.30;;;;;;;;;;5072782;28;20087;-81
2021/01/19 02:01:19;;;;;;;59.67;19.70;;;;;;;;;;5071612;28;20470;-81
2021/01/19 02:03:46;;;;;;;59.70;19.38;;;;;;;;;;5058712;28;20123;-81
2021/01/19 02:06:17;;;;;;;67.72;21.40;;;;;;;;;;5076263;28;20049;-79
2021/01/19 02:08:54;;;;;;;59.10;18.95;;;;;;;;;;5074188;28;20073;-80
2021/01/19 02:11:27;;;;;;;58.65;21.92;;;;;;;;;;5063066;28;20073;-81
2021/01/19 02:13:54;;;;;;;65.95;20.45;;;;;;;;;;5058344;28;20056;-81
2021/01/19 02:16:27;;;;;;;66.82;20.42;;;;;;;;;;5058894;28;20570;-81
2021/01/19 02:19:00;;;;;;;64.65;19.85;;;;;;;;;;5067894;28;20070;-80
2021/01/19 02:21:45;;;;;;;71.72;20.70;;;;;;;;;;5063101;28;20121;-81
2021/01/19 02:24:17;;;;;;;55.30;19.92;;;;;;;;;;5064419;28;20052;-80
2021/01/19 02:26:44;;;;;;;58.72;20.83;;;;;;;;;;5080228;28;20049;-81
2021/01/19 02:29:20;;;;;;;64.80;21.50;;;;;;;;;;5059454;28;20944;-81
2021/01/19 02:31:58;;;;;;;68.25;21.45;;;;;;;;;;5062743;28;20049;-81
2021/01/19 02:34:44;;;;;;;63.10;20.80;;;;;;;;;;5076760;28;20107;-81
2021/01/19 02:37:12;;;;;;;70.53;21.70;;;;;;;;;;5065827;28;20076;-81
2021/01/19 02:39:40;;;;;;;65.00;21.13;;;;;;;;;;5079104;28;20517;-82
2021/01/19 02:42:09;;;;;;;56.22;20.55;;;;;;;;;;5067528;28;20476;-81
2021/01/19 02:44:37;;;;;;;62.88;21.58;;;;;;;;;;5059153;28;20045;-81
2021/01/19 02:47:04;;;;;;;65.45;22.23;;;;;;;;;;5075944;28;20130;-81
2021/01/19 02:49:33;;;;;;;55.83;21.48;;;;;;;;;;5058687;28;20083;-83
2021/01/19 02:52:01;;;;;;;63.20;22.50;;;;;;;;;;5059050;28;20496;-81
2021/01/19 02:54:29;;;;;;;77.57;22.77;;;;;;;;;;5060523;28;20045;-81
2021/01/19 02:57:04;;;;;;;72.60;22.63;;;;;;;;;;5063048;28;20098;-81
2021/01/19 02:59:34;;;;;;;79.47;23.25;;;;;;;;;;5057662;28;20119;-80
2021/01/19 03:02:11;;;;;;;77.35;23.42;;;;;;;;;;5074406;28;20131;-81
2021/01/19 03:04:39;;;;;;;81.68;23.73;;;;;;;;;;5068665;28;20036;-80
2021/01/19 03:07:08;;;;;;;74.72;22.30;;;;;;;;;;5056891;28;20049;-80
2021/01/19 03:09:48;;;;;;;78.15;24.13;;;;;;;;;;5057046;28;20580;-81
2021/01/19 03:12:15;;;;;;;80.72;24.88;;;;;;;;;;5059489;28;20136;-80
2021/01/19 03:14:43;;;;;;;78.00;24.77;;;;;;;;;;5061476;28;20131;-80
2021/01/19 03:17:10;;;;;;;68.32;24.42;;;;;;;;;;5060382;28;20052;-80
2021/01/19 03:19:44;;;;;;;89.45;25.85;;;;;;;;;;5064001;28;20044;-81
2021/01/19 03:22:11;;;;;;;83.45;25.55;;;;;;;;;;5062246;28;20052;-81
2021/01/19 03:24:38;;;;;;;79.07;26.42;;;;;;;;;;5064661;28;20050;-81
2021/01/19 03:27:06;;;;;;;83.85;25.67;;;;;;;;;;5059071;28;20044;-81
2021/01/19 03:29:32;;;;;;;79.82;25.33;;;;;;;;;;5062714;28;20068;-81
2021/01/19 03:31:59;;;;;;;79.75;25.00;;;;;;;;;;5056851;28;20121;-81
2021/01/19 03:34:26;;;;;;;75.70;24.52;;;;;;;;;;5055666;28;20144;-81
2021/01/19 03:36:56;;;;;;;74.70;23.98;;;;;;;;;;5059866;28;20564;-80
2021/01/19 03:39:23;;;;;;;73.35;25.67;;;;;;;;;;5056966;28;20056;-80
2021/01/19 03:41:49;;;;;;;77.55;24.65;;;;;;;;;;5069941;28;20405;-80
2021/01/19 03:44:17;;;;;;;78.03;25.33;;;;;;;;;;5058649;28;20041;-80
2021/01/19 03:46:44;;;;;;;83.80;24.65;;;;;;;;;;5060716;28;20827;-80
2021/01/19 03:49:11;;;;;;;78.82;25.23;;;;;;;;;;5058076;28;20120;-79
2021/01/19 03:51:38;;;;;;;82.68;23.05;;;;;;;;;;5073769;28;20136;-80
2021/01/19 03:54:05;;;;;;;78.07;23.35;;;;;;;;;;5059526;28;20494;-80
2021/01/19 03:56:32;;;;;;;83.28;24.10;;;;;;;;;;5063311;28;20556;-81
2021/01/19 03:58:58;;;;;;;78.50;22.92;;;;;;;;;;5064878;28;20064;-80
2021/01/19 04:01:25;;;;;;;66.93;22.55;;;;;;;;;;5060339;28;20045;-80
2021/01/19 04:03:52;;;;;;;66.47;22.90;;;;;;;;;;5063096;28;20114;-81
2021/01/19 04:06:23;;;;;;;75.97;22.90;;;;;;;;;;5066535;28;20056;-80
2021/01/19 04:08:50;;;;;;;65.30;22.00;;;;;;;;;;5062119;28;20044;-80
2021/01/19 04:11:16;;;;;;;69.38;21.67;;;;;;;;;;5071007;28;20538;-82
2021/01/19 04:13:43;;;;;;;55.60;22.02;;;;;;;;;;5063534;28;20049;-82
2021/01/19 04:16:10;;;;;;;70.03;21.05;;;;;;;;;;5068079;28;20065;-81
2021/01/19 04:18:37;;;;;;;68.25;22.73;;;;;;;;;;5080033;28;20572;-80
2021/01/19 04:21:04;;;;;;;63.90;22.02;;;;;;;;;;5063913;28;20044;-81
2021/01/19 04:23:31;;;;;;;68.13;22.65;;;;;;;;;;5068101;28;20048;-80
2021/01/19 04:25:58;;;;;;;71.43;20.95;;;;;;;;;;5060840;28;20072;-81
2021/01/19 04:28:25;;;;;;;65.78;20.92;;;;;;;;;;5059915;28;20045;-81
2021/01/19 04:30:52;;;;;;;69.78;21.92;;;;;;;;;;5066103;28;20076;-82
2021/01/19 04:33:19;;;;;;;65.63;21.65;;;;;;;;;;5078503;28;20131;-81
2021/01/19 04:35:46;;;;;;;76.85;23.55;;;;;;;;;;5063471;28;20101;-82
2021/01/19 04:38:13;;;;;;;66.63;22.25;;;;;;;;;;5082576;28;20132;-81
2021/01/19 04:40:39;;;;;;;67.75;22.52;;;;;;;;;;5070390;28;20057;-81
2021/01/19 04:43:07;;;;;;;74.85;21.70;;;;;;;;;;5068886;28;20068;-81
2021/01/19 04:45:34;;;;;;;68.72;21.58;;;;;;;;;;5059227;28;20759;-81
2021/01/19 04:48:04;;;;;;;71.90;21.75;;;;;;;;;;5059927;28;20095;-81
2021/01/19 04:50:30;;;;;;;70.10;20.48;;;;;;;;;;5064433;28;20126;-82
2021/01/19 04:53:02;;;;;;;55.70;19.85;;;;;;;;;;5069149;28;20143;-81
2021/01/19 04:55:28;;;;;;;73.20;21.42;;;;;;;;;;5074548;28;20128;-82
2021/01/19 04:58:02;;;;;;;59.45;21.77;;;;;;;;;;5063350;28;20114;-82
2021/01/19 05:00:30;;;;;;;67.30;22.40;;;;;;;;;;5078293;28;20049;-81
2021/01/19 05:03:02;;;;;;;76.70;23.20;;;;;;;;;;5072892;28;20043;-81
2021/01/19 05:05:38;;;;;;;64.93;20.20;;;;;;;;;;5067511;28;20045;-82
2021/01/19 05:08:18;;;;;;;71.18;23.85;;;;;;;;;;5073320;28;20131;-81
2021/01/19 05:13:53;;;;;;;73.47;22.48;;;;;;;;;;5061408;28;20067;-81
2021/01/19 05:16:32;;;;;;;74.63;23.75;;;;;;;;;;5062007;28;20052;-82
2021/01/19 05:19:00;;;;;;;69.55;21.73;;;;;;;;;;5069297;28;20048;-81
2021/01/19 05:21:27;;;;;;;70.75;23.23;;;;;;;;;;5059927;28;20080;-82
2021/01/19 05:23:54;;;;;;;83.32;26.45;;;;;;;;;;5063632;28;20132;-82
2021/01/19 05:26:21;;;;;;;76.10;25.27;;;;;;;;;;5078595;28;20132;-81
2021/01/19 05:28:52;;;;;;;84.97;25.88;;;;;;;;;;5060027;28;20052;-82
2021/01/19 05:31:26;;;;;;;83.22;25.60;;;;;;;;;;5062321;28;20076;-82
2021/01/19 05:33:55;;;;;;;87.20;27.13;;;;;;;;;;5095462;28;20151;-82
2021/01/19 05:36:25;;;;;;;98.72;26.80;;;;;;;;;;5061778;28;20476;-82
2021/01/19 05:38:53;;;;;;;88.70;25.60;;;;;;;;;;5083186;28;20052;-82
2021/01/19 05:41:58;;;;;;;98.82;26.85;;;;;;;;;;5062097;28;20052;-82
2021/01/19 05:44:31;;;;;;;96.45;27.60;;;;;;;;;;5043200;28;20049;-81
2021/01/19 05:47:06;;;;;;;90.05;28.58;;;;;;;;;;5030655;28;20482;-81
2021/01/19 05:49:42;;;;;;;89.35;29.13;;;;;;;;;;5054026;28;20124;-81
2021/01/19 05:52:13;;;;;;;93.75;28.60;;;;;;;;;;5061931;28;20098;-80
2021/01/19 05:54:45;;;;;;;82.60;27.13;;;;;;;;;;5064366;28;20576;-81
2021/01/19 05:57:13;;;;;;;95.50;28.95;;;;;;;;;;5061697;28;20516;-80
2021/01/19 05:59:41;;;;;;;103.78;29.77;;;;;;;;;;5059942;28;20076;-81
2021/01/19 06:02:12;;;;;;;85.63;28.13;;;;;;;;;;5067744;28;20130;-79
2021/01/19 06:04:39;;;;;;;88.18;28.38;;;;;;;;;;5059038;28;20041;-82
2021/01/19 06:07:07;;;;;;;99.22;30.35;;;;;;;;;;5056216;28;20559;-82
2021/01/19 06:09:34;;;;;;;93.43;28.95;;;;;;;;;;5064107;28;20404;-82
2021/01/19 06:12:04;;;;;;;84.57;29.48;;;;;;;;;;5062754;28;20052;-85
2021/01/19 06:14:32;;;;;;;94.20;29.33;;;;;;;;;;5059453;28;20430;-82
2021/01/19 06:17:16;;;;;;;97.13;29.13;;;;;;;;;;5066311;28;20053;-88
2021/01/19 06:19:44;;;;;;;84.78;27.55;;;;;;;;;;5063673;28;20052;-91
2021/01/19 06:22:14;;;;;;;90.93;28.95;;;;;;;;;;5063473;28;20414;-91
2021/01/19 06:25:05;;;;;;;91.00;30.23;;;;;;;;;;5063573;28;20095;-87
2021/01/19 06:27:33;;;;;;;91.18;28.83;;;;;;;;;;5068740;28;20135;-88
2021/01/19 06:29:59;;;;;;;97.50;27.27;;;;;;;;;;5072682;28;20085;-89
2021/01/19 06:32:31;;;;;;;90.68;28.52;;;;;;;;;;5068230;28;20060;-89
2021/01/19 06:35:09;;;;;;;81.88;27.58;;;;;;;;;;5073398;28;20406;-85
2021/01/19 06:37:36;;;;;;;95.72;30.10;;;;;;;;;;5056518;28;20135;-81
2021/01/19 06:40:36;;;;;;;71.15;27.48;;;;;;;;;;5069427;28;20139;-86
2021/01/19 06:43:04;;;;;;;91.00;27.95;;;;;;;;;;5067063;28;20047;-85
2021/01/19 06:45:32;;;;;;;90.50;27.58;;;;;;;;;;5073302;28;20102;-87
2021/01/19 06:48:01;;;;;;;93.47;26.92;;;;;;;;;;5070473;28;20059;-86
2021/01/19 06:50:30;;;;;;;106.15;29.80;;;;;;;;;;5072143;28;20049;-86
2021/01/19 06:53:17;;;;;;;86.00;27.30;;;;;;;;;;5072726;28;20072;-87
2021/01/19 06:55:59;;;;;;;100.22;29.45;;;;;;;;;;5070987;28;20044;-85
2021/01/19 06:58:29;;;;;;;98.20;30.33;;;;;;;;;;5069729;28;20687;-86
2021/01/19 07:01:04;;;;;;;96.97;29.42;;;;;;;;;;5070093;28;20138;-86
2021/01/19 07:03:37;;;;;;;90.10;28.80;;;;;;;;;;5071910;28;20044;-88
2021/01/19 07:06:07;;;;;;;100.25;31.48;;;;;;;;;;5069804;28;20083;-88
2021/01/19 07:08:55;;;;;;;98.63;29.27;;;;;;;;;;5086263;28;20075;-87
2021/01/19 07:11:40;;;;;;;96.05;29.90;;;;;;;;;;5035648;28;20099;-84
2021/01/19 07:14:11;;;;;;;94.35;29.67;;;;;;;;;;5062667;28;20572;-85
2021/01/19 07:17:01;;;;;;;97.55;30.42;;;;;;;;;;5068915;28;20052;-85
2021/01/19 07:19:46;;;;;;;87.28;29.48;;;;;;;;;;5080822;28;20059;-84
2021/01/19 07:22:21;;;;;;;89.95;29.98;;;;;;;;;;5064692;28;20553;-83
2021/01/19 07:24:48;;;;;;;106.57;30.83;;;;;;;;;;5072471;28;20486;-83
2021/01/19 07:27:30;;;;;;;96.63;30.17;;;;;;;;;;5072168;28;20088;-84
2021/01/19 07:29:57;;;;;;;85.22;28.30;;;;;;;;;;5070973;28;20140;-86
2021/01/19 07:32:31;;;;;;;103.15;32.40;;;;;;;;;;5071634;28;20737;-84
2021/01/19 07:34:59;;;;;;;94.97;29.77;;;;;;;;;;5062530;28;20076;-83
2021/01/19 07:37:33;;;;;;;88.35;28.05;;;;;;;;;;5072164;28;20568;-83
2021/01/19 07:40:00;;;;;;;103.40;31.10;;;;;;;;;;5061703;28;20128;-82
2021/01/19 07:42:33;;;;;;;91.75;30.73;;;;;;;;;;5071009;28;20048;-84
2021/01/19 07:45:04;;;;;;;91.35;29.65;;;;;;;;;;5058549;28;20122;-83
2021/01/19 07:47:41;;;;;;;90.95;32.05;;;;;;;;;;5071373;28;20469;-83
2021/01/19 07:50:13;;;;;;;95.57;30.52;;;;;;;;;;5066939;28;20065;-84
2021/01/19 07:52:40;;;;;;;97.93;32.17;;;;;;;;;;5068594;28;20088;-83
2021/01/19 07:55:13;;;;;;;97.93;32.15;;;;;;;;;;5070206;28;20087;-82
2021/01/19 07:57:45;;;;;;;90.50;30.65;;;;;;;;;;5070305;28;20080;-83
2021/01/19 08:00:13;;;;;;;100.47;31.60;;;;;;;;;;5071620;28;20485;-82
2021/01/19 08:02:40;;;;;;;89.68;31.13;;;;;;;;;;5065343;28;20124;-82
2021/01/19 08:05:08;;;;;;;101.35;32.17;;;;;;;;;;5070418;28;20106;-83
2021/01/19 08:07:38;;;;;;;87.93;29.75;;;;;;;;;;5068506;28;20098;-83
2021/01/19 08:10:17;;;;;;;83.80;27.48;;;;;;;;;;5072177;28;20044;-82
2021/01/19 08:12:44;;;;;;;82.50;28.73;;;;;;;;;;5064841;28;20459;-82
2021/01/19 08:15:11;;;;;;;84.75;27.42;;;;;;;;;;5064297;28;20132;-83
2021/01/19 08:17:37;;;;;;;73.85;26.50;;;;;;;;;;5070702;28;20088;-85
2021/01/19 08:20:05;;;;;;;83.00;28.02;;;;;;;;;;5069554;28;20251;-80
2021/01/19 08:22:32;;;;;;;91.05;27.48;;;;;;;;;;5067051;28;20195;-81
2021/01/19 08:25:02;;;;;;;73.68;26.48;;;;;;;;;;5070583;28;20044;-80
2021/01/19 08:27:28;;;;;;;74.25;25.25;;;;;;;;;;5068703;28;20094;-80
2021/01/19 08:30:11;;;;;;;74.28;25.08;;;;;;;;;;5071428;28;20044;-82
2021/01/19 08:32:39;;;;;;;73.38;24.98;;;;;;;;;;5075439;28;20056;-81
2021/01/19 08:35:06;;;;;;;77.15;24.77;;;;;;;;;;5071108;28;20044;-79
2021/01/19 08:37:34;;;;;;;68.50;22.98;;;;;;;;;;5069689;28;20049;-79
2021/01/19 08:40:04;;;;;;;51.25;19.73;;;;;;;;;;5070798;28;20620;-82
2021/01/19 08:42:37;;;;;;;62.35;22.75;;;;;;;;;;5071532;28;20044;-81
2021/01/19 08:45:04;;;;;;;61.65;21.08;;;;;;;;;;5071891;28;20086;-80
2021/01/19 08:47:36;;;;;;;56.65;21.75;;;;;;;;;;5074355;28;20135;-81
2021/01/19 08:50:16;;;;;;;59.55;20.05;;;;;;;;;;5073612;28;20386;-80
2021/01/19 08:52:43;;;;;;;55.13;19.15;;;;;;;;;;5073187;28;20132;-81
2021/01/19 08:55:16;;;;;;;50.60;18.67;;;;;;;;;;5070991;28;20084;-79
2021/01/19 08:57:43;;;;;;;53.92;18.88;;;;;;;;;;5067775;28;20083;-80
2021/01/19 09:00:26;;;;;;;52.17;18.30;;;;;;;;;;5073467;28;20095;-79
2021/01/19 09:02:54;;;;;;;51.10;16.98;;;;;;;;;;5071714;28;20335;-80
2021/01/19 09:05:25;;;;;;;45.85;16.50;;;;;;;;;;5073958;28;20045;-81
2021/01/19 09:07:51;;;;;;;54.45;17.70;;;;;;;;;;5071446;28;20044;-81
2021/01/19 09:10:24;;;;;;;46.67;16.27;;;;;;;;;;5074309;28;20090;-80
2021/01/19 09:12:51;;;;;;;41.55;15.30;;;;;;;;;;5072594;28;20130;-79
2021/01/19 09:15:18;;;;;;;58.92;17.35;;;;;;;;;;5072952;28;20091;-84
2021/01/19 09:17:58;;;;;;;36.63;14.27;;;;;;;;;;5072649;28;20465;-81
2021/01/19 09:20:26;;;;;;;38.00;13.93;;;;;;;;;;5073879;28;20056;-80
2021/01/19 09:22:53;;;;;;;42.45;14.68;;;;;;;;;;5072285;28;20044;-82
2021/01/19 09:25:22;;;;;;;39.00;14.43;;;;;;;;;;5072762;28;20045;-81
2021/01/19 09:27:48;;;;;;;33.97;13.35;;;;;;;;;;5072615;28;20044;-82
2021/01/19 09:30:16;;;;;;;34.47;13.02;;;;;;;;;;5072772;28;20087;-82
2021/01/19 09:32:44;;;;;;;35.60;13.35;;;;;;;;;;5073216;28;20052;-81
2021/01/19 09:35:18;;;;;;;29.83;10.68;;;;;;;;;;5066522;28;20058;-83
2021/01/19 09:37:44;;;;;;;32.97;11.80;;;;;;;;;;5072164;28;20084;-82
2021/01/19 09:40:11;;;;;;;27.63;11.07;;;;;;;;;;5073118;28;20132;-83
2021/01/19 09:42:39;;;;;;;28.83;12.25;;;;;;;;;;5072106;28;20048;-80
2021/01/19 09:45:08;;;;;;;35.33;11.15;;;;;;;;;;5068076;28;20119;-79
2021/01/19 09:47:35;;;;;;;26.13;10.98;;;;;;;;;;5068926;28;20052;-79
2021/01/19 09:50:02;;;;;;;34.40;11.10;;;;;;;;;;5068344;28;20047;-79
2021/01/19 09:52:30;;;;;;;29.88;10.18;;;;;;;;;;5064768;28;20132;-80
2021/01/19 09:55:09;;;;;;;31.70;9.45;;;;;;;;;;5065542;28;20072;-79
2021/01/19 09:57:39;;;;;;;27.45;9.60;;;;;;;;;;5073611;28;20050;-80
2021/01/19 10:00:09;;;;;;;27.15;9.77;;;;;;;;;;5076987;28;20143;-79
2021/01/19 10:02:38;;;;;;;20.42;8.55;;;;;;;;;;5077265;28;20048;-80
2021/01/19 10:05:06;;;;;;;22.88;8.50;;;;;;;;;;5063099;28;20144;-80
2021/01/19 10:07:33;;;;;;;25.27;7.53;;;;;;;;;;5072975;28;20045;-81
2021/01/19 10:10:11;;;;;;;21.05;7.75;;;;;;;;;;5071317;28;20479;-80
2021/01/19 10:12:38;;;;;;;17.98;7.15;;;;;;;;;;5073016;28;20079;-80
2021/01/19 10:15:05;;;;;;;19.30;7.30;;;;;;;;;;5069361;28;20109;-83
2021/01/19 10:17:32;;;;;;;15.60;6.05;;;;;;;;;;5071625;28;20052;-81
2021/01/19 10:20:13;;;;;;;16.02;5.57;;;;;;;;;;5073530;28;20051;-81
2021/01/19 10:22:41;;;;;;;12.23;5.30;;;;;;;;;;5070092;28;20131;-81
2021/01/19 10:25:08;;;;;;;12.90;4.90;;;;;;;;;;5071908;28;20076;-80
2021/01/19 10:27:42;;;;;;;12.75;4.97;;;;;;;;;;5066181;28;20045;-86
2021/01/19 10:30:10;;;;;;;8.52;4.03;;;;;;;;;;5073405;28;20044;-85
2021/01/19 10:32:47;;;;;;;13.68;4.43;;;;;;;;;;5070759;28;20056;-80
2021/01/19 10:35:23;;;;;;;8.48;3.47;;;;;;;;;;5068158;28;20052;-81
2021/01/19 10:37:54;;;;;;;6.32;2.83;;;;;;;;;;5072069;28;20052;-83
2021/01/19 10:40:21;;;;;;;11.00;3.20;;;;;;;;;;5068451;28;20168;-82
2021/01/19 10:42:57;;;;;;;7.38;2.85;;;;;;;;;;5071297;28;20135;-83
2021/01/19 10:45:25;;;;;;;11.55;2.72;;;;;;;;;;5067332;28;20091;-82
2021/01/19 10:47:52;;;;;;;4.57;2.63;;;;;;;;;;5072573;28;20110;-83
2021/01/19 10:50:26;;;;;;;5.70;2.85;;;;;;;;;;5073188;28;20098;-87
2021/01/19 10:52:53;;;;;;;6.38;2.70;;;;;;;;;;5071912;28;20098;-88
2021/01/19 10:55:20;;;;;;;8.68;2.92;;;;;;;;;;5073710;28;20491;-85
2021/01/19 10:57:47;;;;;;;17.95;2.60;;;;;;;;;;5057487;28;20440;-90
2021/01/19 11:00:17;;;;;;;6.82;2.88;;;;;;;;;;5072460;28;20052;-88
2021/01/19 11:02:46;;;;;;;8.82;2.60;;;;;;;;;;5081451;28;20044;-90
2021/01/19 11:05:16;;;;;;;6.30;2.60;;;;;;;;;;5071035;28;20048;-88
2021/01/19 11:07:54;;;;;;;8.38;2.92;;;;;;;;;;5071915;28;20080;-87
2021/01/19 11:10:22;;;;;;;11.43;3.17;;;;;;;;;;5067416;28;20048;-88
2021/01/19 11:12:54;;;;;;;7.35;2.85;;;;;;;;;;5071511;28;20055;-87
2021/01/19 11:15:24;;;;;;;6.55;2.80;;;;;;;;;;5066629;28;20087;-79
2021/01/19 11:17:55;;;;;;;14.98;3.70;;;;;;;;;;5067169;28;20763;-80
2021/01/19 11:20:25;;;;;;;9.60;2.97;;;;;;;;;;5061847;28;20063;-80
2021/01/19 11:22:51;;;;;;;8.13;4.10;;;;;;;;;;5068094;28;20098;-81
2021/01/19 11:25:18;;;;;;;7.05;3.13;;;;;;;;;;5070391;28;20101;-80
2021/01/19 11:27:48;;;;;;;9.15;3.60;;;;;;;;;;5067138;28;20056;-79
2021/01/19 11:30:15;;;;;;;10.18;3.42;;;;;;;;;;5069197;28;20051;-79
2021/01/19 11:32:45;;;;;;;7.40;3.40;;;;;;;;;;5070326;28;20083;-80
2021/01/19 11:35:14;;;;;;;7.00;3.47;;;;;;;;;;5064656;28;20121;-80
2021/01/19 11:37:43;;;;;;;6.90;2.92;;;;;;;;;;5072386;28;20451;-79
2021/01/19 11:40:10;;;;;;;12.27;3.42;;;;;;;;;;5062841;28;20071;-79
2021/01/19 11:42:39;;;;;;;7.60;3.15;;;;;;;;;;5068473;28;20052;-79
2021/01/19 11:45:06;;;;;;;9.23;3.25;;;;;;;;;;5068066;28;20048;-79
2021/01/19 11:47:33;;;;;;;8.52;3.28;;;;;;;;;;5067716;28;20099;-78
2021/01/19 11:50:00;;;;;;;6.05;3.30;;;;;;;;;;5063560;28;20489;-81
2021/01/19 11:52:28;;;;;;;7.30;3.40;;;;;;;;;;5070811;28;20056;-79
2021/01/19 11:54:54;;;;;;;8.85;3.65;;;;;;;;;;5069655;28;20075;-81
2021/01/19 11:57:21;;;;;;;8.77;3.78;;;;;;;;;;5070099;28;20095;-81
2021/01/19 11:59:50;;;;;;;7.93;3.70;;;;;;;;;;5065870;28;20045;-83
2021/01/19 12:02:17;;;;;;;7.07;3.22;;;;;;;;;;5069827;28;20071;-82
2021/01/19 12:04:47;;;;;;;8.50;3.25;;;;;;;;;;5066543;28;20053;-84
2021/01/19 12:07:14;;;;;;;8.68;3.55;;;;;;;;;;5071109;28;20041;-83
2021/01/19 12:09:47;;;;;;;8.77;3.90;;;;;;;;;;5065067;28;20049;-85
2021/01/19 12:12:16;;;;;;;7.05;3.58;;;;;;;;;;5070936;28;20052;-85
2021/01/19 12:14:45;;;;;;;6.95;3.33;;;;;;;;;;5065390;28;20060;-84
2021/01/19 12:17:13;;;;;;;5.47;3.10;;;;;;;;;;5067832;28;20048;-85
2021/01/19 12:19:41;;;;;;;6.60;3.45;;;;;;;;;;5072889;28;20098;-83
2021/01/19 12:22:07;;;;;;;10.30;3.25;;;;;;;;;;5081103;28;20052;-83
2021/01/19 12:24:36;;;;;;;12.93;3.45;;;;;;;;;;5069039;28;20698;-84
2021/01/19 12:27:03;;;;;;;7.20;3.65;;;;;;;;;;5066547;28;20041;-83
2021/01/19 12:29:31;;;;;;;5.95;3.17;;;;;;;;;;5073723;28;20062;-84
2021/01/19 12:32:10;;;;;;;5.35;2.90;;;;;;;;;;5077754;28;20044;-83
2021/01/19 12:34:37;;;;;;;6.72;3.70;;;;;;;;;;5078719;28;20055;-84
2021/01/19 12:37:05;;;;;;;10.57;3.60;;;;;;;;;;5067309;28;20040;-83
2021/01/19 12:39:32;;;;;;;5.38;3.03;;;;;;;;;;5073827;28;20047;-83
2021/01/19 12:42:16;;;;;;;9.32;3.35;;;;;;;;;;5067081;28;20489;-83
2021/01/19 12:44:43;;;;;;;7.63;3.67;;;;;;;;;;5058343;28;20049;-83
2021/01/19 12:47:09;;;;;;;12.95;4.25;;;;;;;;;;5067234;28;20124;-82
2021/01/19 12:49:55;;;;;;;5.70;3.35;;;;;;;;;;5075925;28;20048;-83
2021/01/19 12:52:22;;;;;;;;;;;;;;;;;;5076078;28;20053;-81
2021/01/19 12:54:50;;;;;;;6.45;3.90;;;;;;;;;;5073100;28;20023;-81
2021/01/19 12:57:17;;;;;;;8.18;3.85;;;;;;;;;;5068844;28;20504;-81
2021/01/19 12:59:44;;;;;;;10.15;4.47;;;;;;;;;;5068846;28;20072;-84
2021/01/19 13:02:14;;;;;;;5.55;3.40;;;;;;;;;;5073365;28;20688;-87
2021/01/19 13:04:41;;;;;;;9.93;3.83;;;;;;;;;;5073554;28;20048;-82
2021/01/19 13:07:08;;;;;;;7.57;3.70;;;;;;;;;;5072638;28;20496;-80
2021/01/19 13:09:35;;;;;;;9.88;3.97;;;;;;;;;;5072943;28;20666;-81
2021/01/19 13:12:05;;;;;;;10.57;5.28;;;;;;;;;;5073332;28;20797;-80
2021/01/19 13:14:34;;;;;;;8.40;3.88;;;;;;;;;;5068369;28;20122;-83
2021/01/19 13:17:01;;;;;;;7.70;4.22;;;;;;;;;;5067094;28;20595;-82
2021/01/19 13:19:28;;;;;;;7.38;4.03;;;;;;;;;;5072227;28;20041;-79
2021/01/19 13:21:59;;;;;;;9.18;4.68;;;;;;;;;;5073762;28;20449;-81
2021/01/19 13:24:26;;;;;;;8.30;4.35;;;;;;;;;;5073135;28;20054;-79
2021/01/19 13:26:54;;;;;;;8.65;4.38;;;;;;;;;;5071633;28;20136;-80
2021/01/19 13:29:21;;;;;;;8.10;4.28;;;;;;;;;;5067123;28;20083;-81
2021/01/19 13:31:49;;;;;;;8.93;4.53;;;;;;;;;;5072078;28;20133;-79
2021/01/19 13:34:16;;;;;;;9.30;4.75;;;;;;;;;;5075013;28;20080;-80
2021/01/19 13:36:44;;;;;;;8.20;4.50;;;;;;;;;;5067147;28;20045;-79
2021/01/19 13:39:14;;;;;;;9.57;4.38;;;;;;;;;;5066760;28;20131;-79
2021/01/19 13:41:43;;;;;;;8.70;4.45;;;;;;;;;;5071805;28;20378;-80
2021/01/19 13:44:12;;;;;;;11.98;5.20;;;;;;;;;;5068962;28;20564;-81
2021/01/19 13:46:39;;;;;;;8.90;4.78;;;;;;;;;;5060029;28;20059;-80
2021/01/19 13:49:05;;;;;;;11.10;5.30;;;;;;;;;;5070855;28;20040;-79
2021/01/19 13:51:32;;;;;;;10.80;4.25;;;;;;;;;;5070728;28;20041;-81
2021/01/19 13:54:02;;;;;;;45.15;8.55;;;;;;;;;;5070427;28;20052;-79
2021/01/19 13:56:28;;;;;;;34.08;6.60;;;;;;;;;;5061387;28;20144;-78
2021/01/19 13:59:02;;;;;;;11.40;4.65;;;;;;;;;;5070228;28;20055;-79
2021/01/19 14:01:32;;;;;;;10.27;5.30;;;;;;;;;;5077625;28;20072;-80
2021/01/19 14:04:02;;;;;;;10.73;5.00;;;;;;;;;;5079755;28;20040;-80
2021/01/19 14:06:32;;;;;;;10.80;5.57;;;;;;;;;;5068117;28;20080;-82
2021/01/19 14:09:04;;;;;;;14.68;6.95;;;;;;;;;;5066548;28;20148;-80
2021/01/19 14:11:30;;;;;;;11.18;5.95;;;;;;;;;;5067049;28;20075;-81
2021/01/19 14:13:58;;;;;;;10.40;5.43;;;;;;;;;;5062450;28;20535;-81
2021/01/19 14:16:32;;;;;;;12.43;5.93;;;;;;;;;;5070051;28;20127;-82
2021/01/19 14:19:05;;;;;;;10.95;5.30;;;;;;;;;;5068220;28;20052;-81
2021/01/19 14:21:35;;;;;;;13.65;6.03;;;;;;;;;;5068350;28;20135;-82
2021/01/19 14:24:02;;;;;;;12.88;6.32;;;;;;;;;;5069624;28;20043;-81
2021/01/19 14:26:29;;;;;;;15.10;6.28;;;;;;;;;;5072846;28;20102;-81
2021/01/19 14:29:11;;;;;;;13.07;6.40;;;;;;;;;;5070469;28;20140;-82
2021/01/19 14:31:46;;;;;;;10.75;6.00;;;;;;;;;;5080424;28;20067;-83
2021/01/19 14:34:13;;;;;;;15.47;6.73;;;;;;;;;;5068983;28;20132;-82
2021/01/19 14:36:41;;;;;;;13.07;6.55;;;;;;;;;;5071370;28;20058;-82
2021/01/19 14:39:11;;;;;;;13.85;7.00;;;;;;;;;;5066415;28;20052;-82
2021/01/19 14:41:43;;;;;;;14.90;6.97;;;;;;;;;;5065201;28;20492;-82